sensor_id;sensor_type;location;lat;lon;timestamp;P1;durP1;ratioP1;P2;durP2;ratioP2
62102;SDS011;48077;48.104;11.702;2024-01-15T00:02:09;8.75;;;6.43;;
62102;SDS011;48077;48.104;11.702;2024-01-15T00:04:37;7.65;;;7.05;;
62102;SDS011;48077;48.104;11.702;2024-01-15T00:07:07;6.68;;;6.07;;
62102;SDS011;48077;48.104;11.702;2024-01-15T00:09:35;8.90;;;8.00;;
62102;SDS011;48077;48.104;11.702;2024-01-15T00:12:04;8.35;;;7.55;;
62102;SDS011;48077;48.104;11.702;2024-01-15T00:14:32;8.88;;;8.02;;
62102;SDS011;48077;48.104;11.702;2024-01-15T00:17:00;6.72;;;4.82;;
62102;SDS011;48077;48.104;11.702;2024-01-15T00:19:28;7.30;;;6.60;;
62102;SDS011;48077;48.104;11.702;2024-01-15T00:21:58;8.63;;;7.93;;
62102;SDS011;48077;48.104;11.702;2024-01-15T00:24:27;8.68;;;7.78;;
62102;SDS011;48077;48.104;11.702;2024-01-15T00:26:55;10.52;;;8.20;;
62102;SDS011;48077;48.104;11.702;2024-01-15T00:29:23;8.75;;;7.45;;
62102;SDS011;48077;48.104;11.702;2024-01-15T00:31:51;8.18;;;7.53;;
62102;SDS011;48077;48.104;11.702;2024-01-15T00:34:19;10.13;;;7.18;;
62102;SDS011;48077;48.104;11.702;2024-01-15T00:36:46;8.45;;;7.28;;
62102;SDS011;48077;48.104;11.702;2024-01-15T00:41:44;8.65;;;7.75;;
62102;SDS011;48077;48.104;11.702;2024-01-15T00:44:12;9.55;;;7.65;;
62102;SDS011;48077;48.104;11.702;2024-01-15T00:46:43;10.30;;;8.23;;
62102;SDS011;48077;48.104;11.702;2024-01-15T00:49:11;9.35;;;7.63;;
62102;SDS011;48077;48.104;11.702;2024-01-15T00:51:40;9.02;;;7.82;;
62102;SDS011;48077;48.104;11.702;2024-01-15T00:56:36;7.25;;;6.53;;
62102;SDS011;48077;48.104;11.702;2024-01-15T00:59:05;8.25;;;7.43;;
62102;SDS011;48077;48.104;11.702;2024-01-15T01:01:34;10.73;;;8.15;;
62102;SDS011;48077;48.104;11.702;2024-01-15T01:07:45;9.60;;;6.40;;
62102;SDS011;48077;48.104;11.702;2024-01-15T01:10:12;11.40;;;7.47;;
62102;SDS011;48077;48.104;11.702;2024-01-15T01:12:40;9.30;;;5.88;;
62102;SDS011;48077;48.104;11.702;2024-01-15T01:15:08;11.65;;;6.10;;
62102;SDS011;48077;48.104;11.702;2024-01-15T01:20:05;12.65;;;10.15;;
62102;SDS011;48077;48.104;11.702;2024-01-15T01:22:36;9.27;;;6.70;;
62102;SDS011;48077;48.104;11.702;2024-01-15T01:25:06;11.52;;;7.57;;
62102;SDS011;48077;48.104;11.702;2024-01-15T01:27:34;12.35;;;9.27;;
62102;SDS011;48077;48.104;11.702;2024-01-15T01:30:03;11.98;;;8.13;;
62102;SDS011;48077;48.104;11.702;2024-01-15T01:32:31;12.00;;;7.03;;
62102;SDS011;48077;48.104;11.702;2024-01-15T01:34:59;14.55;;;9.48;;
62102;SDS011;48077;48.104;11.702;2024-01-15T01:37:27;10.90;;;6.93;;
62102;SDS011;48077;48.104;11.702;2024-01-15T01:39:55;17.50;;;9.57;;
62102;SDS011;48077;48.104;11.702;2024-01-15T01:42:24;11.10;;;6.10;;
62102;SDS011;48077;48.104;11.702;2024-01-15T01:44:52;15.43;;;7.43;;
62102;SDS011;48077;48.104;11.702;2024-01-15T01:47:20;13.13;;;7.57;;
62102;SDS011;48077;48.104;11.702;2024-01-15T01:49:47;8.75;;;6.82;;
62102;SDS011;48077;48.104;11.702;2024-01-15T01:52:15;11.70;;;7.40;;
62102;SDS011;48077;48.104;11.702;2024-01-15T01:54:43;14.27;;;7.72;;
62102;SDS011;48077;48.104;11.702;2024-01-15T01:59:40;11.45;;;7.78;;
62102;SDS011;48077;48.104;11.702;2024-01-15T02:02:08;11.82;;;6.88;;
62102;SDS011;48077;48.104;11.702;2024-01-15T02:04:36;11.88;;;8.85;;
62102;SDS011;48077;48.104;11.702;2024-01-15T02:07:05;11.30;;;6.78;;
62102;SDS011;48077;48.104;11.702;2024-01-15T02:09:33;8.93;;;5.63;;
62102;SDS011;48077;48.104;11.702;2024-01-15T02:12:01;10.90;;;7.63;;
62102;SDS011;48077;48.104;11.702;2024-01-15T02:14:29;12.38;;;6.32;;
62102;SDS011;48077;48.104;11.702;2024-01-15T02:16:58;8.32;;;5.88;;
62102;SDS011;48077;48.104;11.702;2024-01-15T02:19:26;10.02;;;6.85;;
62102;SDS011;48077;48.104;11.702;2024-01-15T02:21:54;13.85;;;10.55;;
62102;SDS011;48077;48.104;11.702;2024-01-15T02:24:23;13.70;;;7.00;;
62102;SDS011;48077;48.104;11.702;2024-01-15T02:26:51;14.60;;;7.32;;
62102;SDS011;48077;48.104;11.702;2024-01-15T02:29:19;8.95;;;5.72;;
62102;SDS011;48077;48.104;11.702;2024-01-15T02:31:46;11.30;;;6.22;;
62102;SDS011;48077;48.104;11.702;2024-01-15T02:36:42;10.90;;;6.00;;
62102;SDS011;48077;48.104;11.702;2024-01-15T02:39:10;10.73;;;6.70;;
62102;SDS011;48077;48.104;11.702;2024-01-15T02:41:39;12.02;;;5.30;;
62102;SDS011;48077;48.104;11.702;2024-01-15T02:44:07;9.13;;;6.90;;
62102;SDS011;48077;48.104;11.702;2024-01-15T02:46:35;11.52;;;8.20;;
62102;SDS011;48077;48.104;11.702;2024-01-15T02:49:02;13.55;;;9.50;;
62102;SDS011;48077;48.104;11.702;2024-01-15T02:51:30;8.30;;;6.57;;
62102;SDS011;48077;48.104;11.702;2024-01-15T02:53:58;12.25;;;8.13;;
62102;SDS011;48077;48.104;11.702;2024-01-15T02:56:26;14.88;;;7.60;;
62102;SDS011;48077;48.104;11.702;2024-01-15T02:58:55;8.57;;;6.93;;
62102;SDS011;48077;48.104;11.702;2024-01-15T03:01:23;8.88;;;5.97;;
62102;SDS011;48077;48.104;11.702;2024-01-15T03:03:50;11.93;;;6.43;;
62102;SDS011;48077;48.104;11.702;2024-01-15T03:06:18;12.35;;;7.90;;
62102;SDS011;48077;48.104;11.702;2024-01-15T03:08:46;11.00;;;5.97;;
62102;SDS011;48077;48.104;11.702;2024-01-15T03:11:14;11.07;;;6.05;;
62102;SDS011;48077;48.104;11.702;2024-01-15T03:13:41;9.98;;;5.22;;
62102;SDS011;48077;48.104;11.702;2024-01-15T03:16:11;10.35;;;6.55;;
62102;SDS011;48077;48.104;11.702;2024-01-15T03:18:38;12.40;;;5.82;;
62102;SDS011;48077;48.104;11.702;2024-01-15T03:21:06;11.00;;;6.72;;
62102;SDS011;48077;48.104;11.702;2024-01-15T03:23:34;10.70;;;6.60;;
62102;SDS011;48077;48.104;11.702;2024-01-15T03:26:02;10.15;;;7.13;;
62102;SDS011;48077;48.104;11.702;2024-01-15T03:28:30;9.82;;;5.68;;
62102;SDS011;48077;48.104;11.702;2024-01-15T03:30:57;10.30;;;5.03;;
62102;SDS011;48077;48.104;11.702;2024-01-15T03:33:27;13.23;;;7.03;;
62102;SDS011;48077;48.104;11.702;2024-01-15T03:35:55;10.10;;;6.28;;
62102;SDS011;48077;48.104;11.702;2024-01-15T03:38:22;9.95;;;6.80;;
62102;SDS011;48077;48.104;11.702;2024-01-15T03:43:18;10.93;;;7.20;;
62102;SDS011;48077;48.104;11.702;2024-01-15T03:45:46;10.82;;;6.32;;
62102;SDS011;48077;48.104;11.702;2024-01-15T03:48:14;8.60;;;6.28;;
62102;SDS011;48077;48.104;11.702;2024-01-15T03:50:43;11.50;;;6.63;;
62102;SDS011;48077;48.104;11.702;2024-01-15T03:53:11;9.05;;;5.35;;
62102;SDS011;48077;48.104;11.702;2024-01-15T03:55:39;11.35;;;5.53;;
62102;SDS011;48077;48.104;11.702;2024-01-15T03:58:06;8.57;;;5.68;;
62102;SDS011;48077;48.104;11.702;2024-01-15T04:00:34;9.10;;;8.23;;
62102;SDS011;48077;48.104;11.702;2024-01-15T04:03:02;8.48;;;4.50;;
62102;SDS011;48077;48.104;11.702;2024-01-15T04:05:30;10.85;;;6.28;;
62102;SDS011;48077;48.104;11.702;2024-01-15T04:07:59;10.70;;;9.70;;
62102;SDS011;48077;48.104;11.702;2024-01-15T04:10:27;10.05;;;5.70;;
62102;SDS011;48077;48.104;11.702;2024-01-15T04:12:54;5.80;;;4.13;;
62102;SDS011;48077;48.104;11.702;2024-01-15T04:15:22;11.75;;;6.22;;
62102;SDS011;48077;48.104;11.702;2024-01-15T04:17:51;8.20;;;6.63;;
62102;SDS011;48077;48.104;11.702;2024-01-15T04:20:19;6.50;;;3.97;;
62102;SDS011;48077;48.104;11.702;2024-01-15T04:22:50;8.98;;;6.07;;
62102;SDS011;48077;48.104;11.702;2024-01-15T04:25:19;11.45;;;7.03;;
62102;SDS011;48077;48.104;11.702;2024-01-15T04:27:47;11.48;;;5.53;;
62102;SDS011;48077;48.104;11.702;2024-01-15T04:30:15;8.35;;;4.60;;
62102;SDS011;48077;48.104;11.702;2024-01-15T04:32:43;8.05;;;5.82;;
62102;SDS011;48077;48.104;11.702;2024-01-15T04:35:11;6.03;;;5.47;;
62102;SDS011;48077;48.104;11.702;2024-01-15T04:37:39;5.70;;;4.53;;
62102;SDS011;48077;48.104;11.702;2024-01-15T04:40:07;8.65;;;5.15;;
62102;SDS011;48077;48.104;11.702;2024-01-15T04:42:37;9.65;;;5.93;;
62102;SDS011;48077;48.104;11.702;2024-01-15T04:45:05;10.00;;;4.22;;
62102;SDS011;48077;48.104;11.702;2024-01-15T04:50:03;8.48;;;5.97;;
62102;SDS011;48077;48.104;11.702;2024-01-15T04:52:31;8.55;;;5.20;;
62102;SDS011;48077;48.104;11.702;2024-01-15T04:54:59;6.82;;;4.50;;
62102;SDS011;48077;48.104;11.702;2024-01-15T04:57:27;8.30;;;5.10;;
62102;SDS011;48077;48.104;11.702;2024-01-15T05:02:24;6.93;;;4.68;;
62102;SDS011;48077;48.104;11.702;2024-01-15T05:04:51;8.60;;;5.47;;
62102;SDS011;48077;48.104;11.702;2024-01-15T05:07:19;6.05;;;4.55;;
62102;SDS011;48077;48.104;11.702;2024-01-15T05:09:47;8.18;;;5.50;;
62102;SDS011;48077;48.104;11.702;2024-01-15T05:12:15;8.32;;;4.45;;
62102;SDS011;48077;48.104;11.702;2024-01-15T05:14:42;6.75;;;4.50;;
62102;SDS011;48077;48.104;11.702;2024-01-15T05:17:11;7.82;;;5.35;;
62102;SDS011;48077;48.104;11.702;2024-01-15T05:19:39;9.23;;;4.90;;
62102;SDS011;48077;48.104;11.702;2024-01-15T05:22:07;7.53;;;5.70;;
62102;SDS011;48077;48.104;11.702;2024-01-15T05:24:37;8.68;;;4.82;;
62102;SDS011;48077;48.104;11.702;2024-01-15T05:27:05;9.80;;;4.93;;
62102;SDS011;48077;48.104;11.702;2024-01-15T05:29:33;7.50;;;4.60;;
62102;SDS011;48077;48.104;11.702;2024-01-15T05:32:01;9.30;;;6.07;;
62102;SDS011;48077;48.104;11.702;2024-01-15T05:34:30;6.10;;;4.20;;
62102;SDS011;48077;48.104;11.702;2024-01-15T05:36:58;8.57;;;6.40;;
62102;SDS011;48077;48.104;11.702;2024-01-15T05:39:26;11.18;;;5.82;;
62102;SDS011;48077;48.104;11.702;2024-01-15T05:41:54;7.38;;;4.35;;
62102;SDS011;48077;48.104;11.702;2024-01-15T05:44:22;6.45;;;4.63;;
62102;SDS011;48077;48.104;11.702;2024-01-15T05:46:50;8.02;;;4.43;;
62102;SDS011;48077;48.104;11.702;2024-01-15T05:49:18;5.90;;;4.28;;
62102;SDS011;48077;48.104;11.702;2024-01-15T05:51:47;4.63;;;3.67;;
62102;SDS011;48077;48.104;11.702;2024-01-15T05:54:15;4.43;;;3.97;;
62102;SDS011;48077;48.104;11.702;2024-01-15T05:56:43;5.18;;;3.88;;
62102;SDS011;48077;48.104;11.702;2024-01-15T05:59:11;4.50;;;3.90;;
62102;SDS011;48077;48.104;11.702;2024-01-15T06:01:41;6.70;;;5.72;;
62102;SDS011;48077;48.104;11.702;2024-01-15T06:04:09;8.70;;;4.13;;
62102;SDS011;48077;48.104;11.702;2024-01-15T06:06:37;8.40;;;5.93;;
62102;SDS011;48077;48.104;11.702;2024-01-15T06:09:06;8.52;;;4.32;;
62102;SDS011;48077;48.104;11.702;2024-01-15T06:11:35;6.07;;;4.05;;
62102;SDS011;48077;48.104;11.702;2024-01-15T06:14:02;7.50;;;5.00;;
62102;SDS011;48077;48.104;11.702;2024-01-15T06:16:30;8.40;;;5.00;;
62102;SDS011;48077;48.104;11.702;2024-01-15T06:18:58;7.60;;;6.78;;
62102;SDS011;48077;48.104;11.702;2024-01-15T06:21:26;6.07;;;4.78;;
62102;SDS011;48077;48.104;11.702;2024-01-15T06:23:54;6.20;;;4.95;;
62102;SDS011;48077;48.104;11.702;2024-01-15T06:26:24;7.40;;;4.75;;
62102;SDS011;48077;48.104;11.702;2024-01-15T06:28:51;6.43;;;5.03;;
62102;SDS011;48077;48.104;11.702;2024-01-15T06:31:19;6.63;;;4.63;;
62102;SDS011;48077;48.104;11.702;2024-01-15T06:33:47;6.30;;;4.20;;
62102;SDS011;48077;48.104;11.702;2024-01-15T06:38:43;5.00;;;4.20;;
62102;SDS011;48077;48.104;11.702;2024-01-15T06:41:11;7.13;;;4.25;;
62102;SDS011;48077;48.104;11.702;2024-01-15T06:43:40;5.90;;;4.32;;
62102;SDS011;48077;48.104;11.702;2024-01-15T06:46:08;7.90;;;4.95;;
62102;SDS011;48077;48.104;11.702;2024-01-15T06:48:36;6.85;;;4.38;;
62102;SDS011;48077;48.104;11.702;2024-01-15T06:51:04;6.72;;;3.92;;
62102;SDS011;48077;48.104;11.702;2024-01-15T06:53:32;10.07;;;4.15;;
62102;SDS011;48077;48.104;11.702;2024-01-15T06:55:59;8.43;;;4.15;;
62102;SDS011;48077;48.104;11.702;2024-01-15T06:58:27;11.57;;;4.93;;
62102;SDS011;48077;48.104;11.702;2024-01-15T07:00:56;5.65;;;4.05;;
62102;SDS011;48077;48.104;11.702;2024-01-15T07:03:24;7.97;;;5.72;;
62102;SDS011;48077;48.104;11.702;2024-01-15T07:05:52;7.43;;;5.93;;
62102;SDS011;48077;48.104;11.702;2024-01-15T07:08:20;7.07;;;4.70;;
62102;SDS011;48077;48.104;11.702;2024-01-15T07:10:47;6.97;;;5.40;;
62102;SDS011;48077;48.104;11.702;2024-01-15T07:13:15;7.35;;;4.88;;
62102;SDS011;48077;48.104;11.702;2024-01-15T07:15:43;6.35;;;4.25;;
62102;SDS011;48077;48.104;11.702;2024-01-15T07:18:13;8.70;;;7.82;;
62102;SDS011;48077;48.104;11.702;2024-01-15T07:20:40;7.18;;;4.65;;
62102;SDS011;48077;48.104;11.702;2024-01-15T07:23:08;6.53;;;4.15;;
62102;SDS011;48077;48.104;11.702;2024-01-15T07:25:36;5.28;;;4.78;;
62102;SDS011;48077;48.104;11.702;2024-01-15T07:28:04;7.40;;;4.47;;
62102;SDS011;48077;48.104;11.702;2024-01-15T07:30:32;7.78;;;6.80;;
62102;SDS011;48077;48.104;11.702;2024-01-15T07:33:00;6.70;;;4.53;;
62102;SDS011;48077;48.104;11.702;2024-01-15T07:35:32;7.25;;;3.88;;
62102;SDS011;48077;48.104;11.702;2024-01-15T07:38:00;8.88;;;4.53;;
62102;SDS011;48077;48.104;11.702;2024-01-15T07:40:27;8.13;;;7.10;;
62102;SDS011;48077;48.104;11.702;2024-01-15T07:42:55;8.45;;;4.57;;
62102;SDS011;48077;48.104;11.702;2024-01-15T07:45:23;9.60;;;4.05;;
62102;SDS011;48077;48.104;11.702;2024-01-15T07:47:50;6.15;;;4.25;;
62102;SDS011;48077;48.104;11.702;2024-01-15T07:50:19;9.05;;;5.15;;
62102;SDS011;48077;48.104;11.702;2024-01-15T07:52:48;7.53;;;5.22;;
62102;SDS011;48077;48.104;11.702;2024-01-15T07:55:16;9.02;;;7.72;;
62102;SDS011;48077;48.104;11.702;2024-01-15T07:57:43;6.70;;;3.60;;
62102;SDS011;48077;48.104;11.702;2024-01-15T08:00:24;7.28;;;4.80;;
62102;SDS011;48077;48.104;11.702;2024-01-15T08:02:52;8.98;;;5.15;;
62102;SDS011;48077;48.104;11.702;2024-01-15T08:05:20;9.95;;;5.18;;
62102;SDS011;48077;48.104;11.702;2024-01-15T08:07:50;8.90;;;5.40;;
62102;SDS011;48077;48.104;11.702;2024-01-15T08:10:20;8.32;;;5.97;;
62102;SDS011;48077;48.104;11.702;2024-01-15T08:12:48;7.68;;;5.78;;
62102;SDS011;48077;48.104;11.702;2024-01-15T08:15:15;8.25;;;5.38;;
62102;SDS011;48077;48.104;11.702;2024-01-15T08:17:45;8.70;;;5.53;;
62102;SDS011;48077;48.104;11.702;2024-01-15T08:20:12;6.70;;;4.03;;
62102;SDS011;48077;48.104;11.702;2024-01-15T08:22:42;8.48;;;5.38;;
62102;SDS011;48077;48.104;11.702;2024-01-15T08:25:11;6.45;;;3.90;;
62102;SDS011;48077;48.104;11.702;2024-01-15T08:27:39;7.57;;;4.80;;
62102;SDS011;48077;48.104;11.702;2024-01-15T08:30:08;9.13;;;4.93;;
62102;SDS011;48077;48.104;11.702;2024-01-15T08:32:36;6.65;;;5.40;;
62102;SDS011;48077;48.104;11.702;2024-01-15T08:35:08;6.35;;;5.00;;
62102;SDS011;48077;48.104;11.702;2024-01-15T08:37:37;9.75;;;8.65;;
62102;SDS011;48077;48.104;11.702;2024-01-15T08:40:05;6.95;;;5.05;;
62102;SDS011;48077;48.104;11.702;2024-01-15T08:42:35;7.05;;;5.13;;
62102;SDS011;48077;48.104;11.702;2024-01-15T08:45:04;6.07;;;5.00;;
62102;SDS011;48077;48.104;11.702;2024-01-15T08:47:32;6.70;;;4.00;;
62102;SDS011;48077;48.104;11.702;2024-01-15T08:50:01;7.85;;;4.35;;
62102;SDS011;48077;48.104;11.702;2024-01-15T08:52:29;8.65;;;5.80;;
62102;SDS011;48077;48.104;11.702;2024-01-15T08:54:57;9.07;;;5.50;;
62102;SDS011;48077;48.104;11.702;2024-01-15T08:57:27;6.05;;;4.45;;
62102;SDS011;48077;48.104;11.702;2024-01-15T08:59:57;8.40;;;4.82;;
62102;SDS011;48077;48.104;11.702;2024-01-15T09:02:25;7.88;;;4.53;;
62102;SDS011;48077;48.104;11.702;2024-01-15T09:04:53;6.72;;;5.72;;
62102;SDS011;48077;48.104;11.702;2024-01-15T09:09:48;7.53;;;4.57;;
62102;SDS011;48077;48.104;11.702;2024-01-15T09:12:16;6.88;;;4.68;;
62102;SDS011;48077;48.104;11.702;2024-01-15T09:17:14;5.25;;;4.63;;
62102;SDS011;48077;48.104;11.702;2024-01-15T09:19:42;8.68;;;7.40;;
62102;SDS011;48077;48.104;11.702;2024-01-15T09:22:10;8.57;;;6.35;;
62102;SDS011;48077;48.104;11.702;2024-01-15T09:24:40;7.45;;;5.47;;
62102;SDS011;48077;48.104;11.702;2024-01-15T09:27:08;7.40;;;5.70;;
62102;SDS011;48077;48.104;11.702;2024-01-15T09:29:36;8.57;;;4.38;;
62102;SDS011;48077;48.104;11.702;2024-01-15T09:32:06;6.57;;;4.53;;
62102;SDS011;48077;48.104;11.702;2024-01-15T09:34:35;7.85;;;5.07;;
62102;SDS011;48077;48.104;11.702;2024-01-15T09:37:04;5.63;;;3.78;;
62102;SDS011;48077;48.104;11.702;2024-01-15T09:39:31;6.68;;;5.40;;
62102;SDS011;48077;48.104;11.702;2024-01-15T09:41:59;6.18;;;4.57;;
62102;SDS011;48077;48.104;11.702;2024-01-15T09:44:28;6.30;;;4.45;;
62102;SDS011;48077;48.104;11.702;2024-01-15T09:46:56;9.35;;;8.45;;
62102;SDS011;48077;48.104;11.702;2024-01-15T09:49:24;6.03;;;4.50;;
62102;SDS011;48077;48.104;11.702;2024-01-15T09:54:36;6.88;;;4.15;;
62102;SDS011;48077;48.104;11.702;2024-01-15T09:57:05;6.90;;;4.20;;
62102;SDS011;48077;48.104;11.702;2024-01-15T09:59:32;8.52;;;4.80;;
62102;SDS011;48077;48.104;11.702;2024-01-15T10:02:01;5.57;;;4.13;;
62102;SDS011;48077;48.104;11.702;2024-01-15T10:04:30;6.65;;;4.30;;
62102;SDS011;48077;48.104;11.702;2024-01-15T10:07:00;6.00;;;3.65;;
62102;SDS011;48077;48.104;11.702;2024-01-15T10:09:28;9.07;;;4.80;;
62102;SDS011;48077;48.104;11.702;2024-01-15T10:11:56;6.82;;;4.07;;
62102;SDS011;48077;48.104;11.702;2024-01-15T10:14:24;7.22;;;5.53;;
62102;SDS011;48077;48.104;11.702;2024-01-15T10:16:52;8.63;;;6.50;;
62102;SDS011;48077;48.104;11.702;2024-01-15T10:19:22;9.60;;;5.95;;
62102;SDS011;48077;48.104;11.702;2024-01-15T10:21:50;7.10;;;5.65;;
62102;SDS011;48077;48.104;11.702;2024-01-15T10:24:19;12.85;;;7.18;;
62102;SDS011;48077;48.104;11.702;2024-01-15T10:26:47;11.70;;;5.50;;
62102;SDS011;48077;48.104;11.702;2024-01-15T10:29:15;6.72;;;3.88;;
62102;SDS011;48077;48.104;11.702;2024-01-15T10:31:42;13.77;;;8.00;;
62102;SDS011;48077;48.104;11.702;2024-01-15T10:34:12;23.52;;;8.30;;
62102;SDS011;48077;48.104;11.702;2024-01-15T10:36:44;19.55;;;7.53;;
62102;SDS011;48077;48.104;11.702;2024-01-15T10:39:14;12.77;;;6.47;;
62102;SDS011;48077;48.104;11.702;2024-01-15T10:41:44;33.30;;;10.57;;
62102;SDS011;48077;48.104;11.702;2024-01-15T10:44:12;13.30;;;7.80;;
62102;SDS011;48077;48.104;11.702;2024-01-15T10:49:07;5.45;;;3.38;;
62102;SDS011;48077;48.104;11.702;2024-01-15T10:51:36;8.88;;;4.53;;
62102;SDS011;48077;48.104;11.702;2024-01-15T10:54:04;15.38;;;6.82;;
62102;SDS011;48077;48.104;11.702;2024-01-15T10:56:32;11.93;;;6.15;;
62102;SDS011;48077;48.104;11.702;2024-01-15T10:59:02;4.05;;;3.63;;
62102;SDS011;48077;48.104;11.702;2024-01-15T11:01:31;8.43;;;5.43;;
62102;SDS011;48077;48.104;11.702;2024-01-15T11:04:01;16.33;;;9.90;;
62102;SDS011;48077;48.104;11.702;2024-01-15T11:06:29;5.20;;;4.13;;
62102;SDS011;48077;48.104;11.702;2024-01-15T11:09:09;6.13;;;5.28;;
62102;SDS011;48077;48.104;11.702;2024-01-15T11:14:09;4.25;;;3.85;;
62102;SDS011;48077;48.104;11.702;2024-01-15T11:16:55;5.05;;;4.53;;
62102;SDS011;48077;48.104;11.702;2024-01-15T11:19:25;6.25;;;4.55;;
62102;SDS011;48077;48.104;11.702;2024-01-15T11:21:53;7.32;;;6.20;;
62102;SDS011;48077;48.104;11.702;2024-01-15T11:24:34;8.18;;;5.88;;
62102;SDS011;48077;48.104;11.702;2024-01-15T11:27:04;3.03;;;2.47;;
62102;SDS011;48077;48.104;11.702;2024-01-15T11:29:33;6.57;;;5.97;;
62102;SDS011;48077;48.104;11.702;2024-01-15T11:32:03;4.05;;;3.20;;
62102;SDS011;48077;48.104;11.702;2024-01-15T11:37:29;5.18;;;3.72;;
62102;SDS011;48077;48.104;11.702;2024-01-15T11:40:38;6.32;;;5.43;;
62102;SDS011;48077;48.104;11.702;2024-01-15T11:45:36;3.03;;;2.72;;
62102;SDS011;48077;48.104;11.702;2024-01-15T11:48:11;6.00;;;4.93;;
62102;SDS011;48077;48.104;11.702;2024-01-15T11:50:42;4.63;;;2.85;;
62102;SDS011;48077;48.104;11.702;2024-01-15T11:53:17;2.60;;;2.40;;
62102;SDS011;48077;48.104;11.702;2024-01-15T11:55:53;3.60;;;3.30;;
62102;SDS011;48077;48.104;11.702;2024-01-15T11:58:25;4.20;;;3.55;;
62102;SDS011;48077;48.104;11.702;2024-01-15T12:00:53;5.20;;;3.90;;
62102;SDS011;48077;48.104;11.702;2024-01-15T12:03:22;4.20;;;3.83;;
62102;SDS011;48077;48.104;11.702;2024-01-15T12:08:24;3.42;;;2.35;;
62102;SDS011;48077;48.104;11.702;2024-01-15T12:10:53;5.43;;;3.35;;
62102;SDS011;48077;48.104;11.702;2024-01-15T12:13:21;5.13;;;4.72;;
62102;SDS011;48077;48.104;11.702;2024-01-15T12:15:48;7.65;;;4.93;;
62102;SDS011;48077;48.104;11.702;2024-01-15T12:18:17;5.82;;;5.10;;
62102;SDS011;48077;48.104;11.702;2024-01-15T12:20:46;5.50;;;4.40;;
62102;SDS011;48077;48.104;11.702;2024-01-15T12:23:14;3.50;;;3.20;;
62102;SDS011;48077;48.104;11.702;2024-01-15T12:25:44;3.47;;;3.15;;
62102;SDS011;48077;48.104;11.702;2024-01-15T12:28:13;6.63;;;3.72;;
62102;SDS011;48077;48.104;11.702;2024-01-15T12:30:42;7.75;;;4.80;;
62102;SDS011;48077;48.104;11.702;2024-01-15T12:33:17;4.25;;;3.00;;
62102;SDS011;48077;48.104;11.702;2024-01-15T12:35:45;6.30;;;4.22;;
62102;SDS011;48077;48.104;11.702;2024-01-15T12:38:12;4.93;;;3.10;;
62102;SDS011;48077;48.104;11.702;2024-01-15T12:40:40;4.93;;;4.32;;
62102;SDS011;48077;48.104;11.702;2024-01-15T12:43:13;4.38;;;3.78;;
62102;SDS011;48077;48.104;11.702;2024-01-15T12:45:41;3.75;;;3.22;;
62102;SDS011;48077;48.104;11.702;2024-01-15T12:48:09;5.53;;;2.78;;
62102;SDS011;48077;48.104;11.702;2024-01-15T12:50:39;3.40;;;2.53;;
62102;SDS011;48077;48.104;11.702;2024-01-15T12:53:11;4.10;;;3.03;;
62102;SDS011;48077;48.104;11.702;2024-01-15T12:55:39;5.00;;;2.47;;
62102;SDS011;48077;48.104;11.702;2024-01-15T12:58:08;4.15;;;2.80;;
62102;SDS011;48077;48.104;11.702;2024-01-15T13:00:36;3.03;;;2.53;;
62102;SDS011;48077;48.104;11.702;2024-01-15T13:03:06;2.80;;;2.40;;
62102;SDS011;48077;48.104;11.702;2024-01-15T13:05:34;3.20;;;2.95;;
62102;SDS011;48077;48.104;11.702;2024-01-15T13:08:03;4.00;;;2.97;;
62102;SDS011;48077;48.104;11.702;2024-01-15T13:10:32;3.30;;;3.10;;
62102;SDS011;48077;48.104;11.702;2024-01-15T13:12:59;3.92;;;3.50;;
62102;SDS011;48077;48.104;11.702;2024-01-15T13:15:29;3.20;;;2.58;;
62102;SDS011;48077;48.104;11.702;2024-01-15T13:17:57;5.38;;;3.22;;
62102;SDS011;48077;48.104;11.702;2024-01-15T13:20:25;3.50;;;3.20;;
62102;SDS011;48077;48.104;11.702;2024-01-15T13:22:53;4.75;;;1.98;;
62102;SDS011;48077;48.104;11.702;2024-01-15T13:25:21;3.25;;;2.88;;
62102;SDS011;48077;48.104;11.702;2024-01-15T13:27:49;3.83;;;2.70;;
62102;SDS011;48077;48.104;11.702;2024-01-15T13:30:17;3.53;;;2.88;;
62102;SDS011;48077;48.104;11.702;2024-01-15T13:32:47;5.63;;;3.65;;
62102;SDS011;48077;48.104;11.702;2024-01-15T13:35:15;5.30;;;3.83;;
62102;SDS011;48077;48.104;11.702;2024-01-15T13:37:43;4.95;;;3.45;;
62102;SDS011;48077;48.104;11.702;2024-01-15T13:40:10;5.10;;;3.00;;
62102;SDS011;48077;48.104;11.702;2024-01-15T13:42:43;3.55;;;3.17;;
62102;SDS011;48077;48.104;11.702;2024-01-15T13:45:12;3.53;;;2.50;;
62102;SDS011;48077;48.104;11.702;2024-01-15T13:47:41;12.27;;;6.18;;
62102;SDS011;48077;48.104;11.702;2024-01-15T13:50:11;7.22;;;5.53;;
62102;SDS011;48077;48.104;11.702;2024-01-15T13:52:38;4.40;;;4.00;;
62102;SDS011;48077;48.104;11.702;2024-01-15T13:57:35;3.47;;;3.00;;
62102;SDS011;48077;48.104;11.702;2024-01-15T14:02:36;4.00;;;3.05;;
62102;SDS011;48077;48.104;11.702;2024-01-15T14:05:04;3.15;;;2.63;;
62102;SDS011;48077;48.104;11.702;2024-01-15T14:07:34;3.95;;;2.70;;
62102;SDS011;48077;48.104;11.702;2024-01-15T14:10:01;4.63;;;3.05;;
62102;SDS011;48077;48.104;11.702;2024-01-15T14:12:30;4.18;;;3.75;;
62102;SDS011;48077;48.104;11.702;2024-01-15T14:14:58;4.50;;;3.50;;
62102;SDS011;48077;48.104;11.702;2024-01-15T14:17:27;4.07;;;3.60;;
62102;SDS011;48077;48.104;11.702;2024-01-15T14:19:55;4.03;;;3.45;;
62102;SDS011;48077;48.104;11.702;2024-01-15T14:24:52;3.90;;;2.83;;
62102;SDS011;48077;48.104;11.702;2024-01-15T14:27:20;3.95;;;3.50;;
62102;SDS011;48077;48.104;11.702;2024-01-15T14:29:48;6.25;;;5.63;;
62102;SDS011;48077;48.104;11.702;2024-01-15T14:32:16;6.90;;;3.63;;
62102;SDS011;48077;48.104;11.702;2024-01-15T14:34:44;4.63;;;3.72;;
62102;SDS011;48077;48.104;11.702;2024-01-15T14:39:39;4.07;;;3.38;;
62102;SDS011;48077;48.104;11.702;2024-01-15T14:42:09;4.30;;;3.03;;
62102;SDS011;48077;48.104;11.702;2024-01-15T14:44:38;3.22;;;2.38;;
62102;SDS011;48077;48.104;11.702;2024-01-15T14:47:07;5.55;;;3.67;;
62102;SDS011;48077;48.104;11.702;2024-01-15T14:52:03;4.28;;;2.33;;
62102;SDS011;48077;48.104;11.702;2024-01-15T14:54:31;4.35;;;3.95;;
62102;SDS011;48077;48.104;11.702;2024-01-15T14:56:59;3.67;;;2.72;;
62102;SDS011;48077;48.104;11.702;2024-01-15T14:59:28;3.22;;;2.90;;
62102;SDS011;48077;48.104;11.702;2024-01-15T15:01:56;5.05;;;3.33;;
62102;SDS011;48077;48.104;11.702;2024-01-15T15:04:24;4.20;;;2.88;;
62102;SDS011;48077;48.104;11.702;2024-01-15T15:06:52;4.93;;;3.92;;
62102;SDS011;48077;48.104;11.702;2024-01-15T15:09:20;5.45;;;2.75;;
62102;SDS011;48077;48.104;11.702;2024-01-15T15:11:48;3.53;;;2.58;;
62102;SDS011;48077;48.104;11.702;2024-01-15T15:14:17;3.10;;;2.50;;
62102;SDS011;48077;48.104;11.702;2024-01-15T15:19:14;3.80;;;3.33;;
62102;SDS011;48077;48.104;11.702;2024-01-15T15:21:44;3.78;;;2.08;;
62102;SDS011;48077;48.104;11.702;2024-01-15T15:24:12;3.92;;;3.10;;
62102;SDS011;48077;48.104;11.702;2024-01-15T15:26:40;3.50;;;3.17;;
62102;SDS011;48077;48.104;11.702;2024-01-15T15:29:07;4.03;;;3.72;;
62102;SDS011;48077;48.104;11.702;2024-01-15T15:34:04;4.55;;;4.15;;
62102;SDS011;48077;48.104;11.702;2024-01-15T15:36:32;3.63;;;3.33;;
62102;SDS011;48077;48.104;11.702;2024-01-15T15:39:00;4.53;;;4.13;;
62102;SDS011;48077;48.104;11.702;2024-01-15T15:41:28;6.63;;;3.75;;
62102;SDS011;48077;48.104;11.702;2024-01-15T15:43:55;9.68;;;6.70;;